sensor_id;sensor_type;location;lat;lon;timestamp;pressure;altitude;pressure_sealevel;temperature;humidity
63535;BME280;55128;50.230;18.944;2022-11-14T00:00:33;99575.75;;;5.81;88.04
63535;BME280;55128;50.230;18.944;2022-11-14T00:05:38;99561.63;;;5.89;88.35
63535;BME280;55128;50.230;18.944;2022-11-14T00:10:40;99556.56;;;5.73;88.17
63535;BME280;55128;50.230;18.944;2022-11-14T00:15:41;99548.56;;;5.79;88.13
63535;BME280;55128;50.230;18.944;2022-11-14T00:20:41;99556.63;;;5.67;88.66
63535;BME280;55128;50.230;18.944;2022-11-14T00:25:43;99541.50;;;5.84;88.02
63535;BME280;55128;50.230;18.944;2022-11-14T00:30:47;99549.28;;;5.94;88.12
63535;BME280;55128;50.230;18.944;2022-11-14T00:35:56;99556.25;;;6.01;87.18
63535;BME280;55128;50.230;18.944;2022-11-14T00:40:57;99555.44;;;5.96;87.72
63535;BME280;55128;50.230;18.944;2022-11-14T00:45:57;99561.34;;;6.15;86.19
63535;BME280;55128;50.230;18.944;2022-11-14T00:50:58;99555.47;;;5.91;87.14
63535;BME280;55128;50.230;18.944;2022-11-14T00:55:59;99557.16;;;5.98;86.59
63535;BME280;55128;50.230;18.944;2022-11-14T01:00:59;99554.56;;;5.95;87.38
63535;BME280;55128;50.230;18.944;2022-11-14T01:06:05;99549.59;;;5.66;87.98
63535;BME280;55128;50.230;18.944;2022-11-14T01:11:11;99535.31;;;5.85;88.11
63535;BME280;55128;50.230;18.944;2022-11-14T01:16:12;99525.50;;;6.01;86.40
63535;BME280;55128;50.230;18.944;2022-11-14T01:21:13;99526.44;;;5.96;86.84
63535;BME280;55128;50.230;18.944;2022-11-14T01:26:14;99516.19;;;5.70;87.21
63535;BME280;55128;50.230;18.944;2022-11-14T01:31:17;99505.66;;;5.71;87.52
63535;BME280;55128;50.230;18.944;2022-11-14T01:36:18;99500.31;;;5.74;87.23
63535;BME280;55128;50.230;18.944;2022-11-14T01:41:19;99489.00;;;5.68;87.81
63535;BME280;55128;50.230;18.944;2022-11-14T01:46:36;99487.22;;;5.68;87.74
63535;BME280;55128;50.230;18.944;2022-11-14T01:56:42;99479.38;;;5.65;87.38
63535;BME280;55128;50.230;18.944;2022-11-14T02:01:46;99486.47;;;5.57;87.47
63535;BME280;55128;50.230;18.944;2022-11-14T02:06:49;99473.50;;;5.40;88.67
63535;BME280;55128;50.230;18.944;2022-11-14T02:11:54;99461.09;;;5.50;88.30
63535;BME280;55128;50.230;18.944;2022-11-14T02:16:56;99464.66;;;5.45;88.27
63535;BME280;55128;50.230;18.944;2022-11-14T02:21:57;99459.41;;;5.45;88.24
63535;BME280;55128;50.230;18.944;2022-11-14T02:26:58;99458.72;;;5.30;89.93
63535;BME280;55128;50.230;18.944;2022-11-14T02:31:58;99447.94;;;5.50;88.91
63535;BME280;55128;50.230;18.944;2022-11-14T02:36:59;99451.38;;;5.58;88.07
63535;BME280;55128;50.230;18.944;2022-11-14T02:42:00;99446.31;;;5.39;88.86
63535;BME280;55128;50.230;18.944;2022-11-14T02:47:00;99450.63;;;5.47;88.32
63535;BME280;55128;50.230;18.944;2022-11-14T02:52:01;99447.28;;;5.32;89.24
63535;BME280;55128;50.230;18.944;2022-11-14T02:57:01;99441.25;;;5.22;89.42
63535;BME280;55128;50.230;18.944;2022-11-14T03:02:02;99439.19;;;5.49;88.46
63535;BME280;55128;50.230;18.944;2022-11-14T03:07:03;99437.72;;;5.23;88.96
63535;BME280;55128;50.230;18.944;2022-11-14T03:12:03;99440.31;;;5.28;89.08
63535;BME280;55128;50.230;18.944;2022-11-14T03:17:04;99441.31;;;5.16;89.64
63535;BME280;55128;50.230;18.944;2022-11-14T03:22:05;99435.00;;;5.31;89.40
63535;BME280;55128;50.230;18.944;2022-11-14T03:27:05;99426.94;;;5.47;89.23
63535;BME280;55128;50.230;18.944;2022-11-14T03:32:06;99432.09;;;5.56;88.37
63535;BME280;55128;50.230;18.944;2022-11-14T03:37:06;99424.09;;;5.62;87.16
63535;BME280;55128;50.230;18.944;2022-11-14T03:42:07;99423.34;;;5.54;87.87
63535;BME280;55128;50.230;18.944;2022-11-14T03:53:05;99418.03;;;5.55;87.88
63535;BME280;55128;50.230;18.944;2022-11-14T03:58:06;99417.25;;;5.49;88.24
63535;BME280;55128;50.230;18.944;2022-11-14T04:03:07;99409.16;;;5.61;87.21
63535;BME280;55128;50.230;18.944;2022-11-14T04:08:07;99416.44;;;5.42;88.88
63535;BME280;55128;50.230;18.944;2022-11-14T04:13:08;99418.28;;;5.35;88.98
63535;BME280;55128;50.230;18.944;2022-11-14T04:18:08;99409.34;;;5.50;88.69
63535;BME280;55128;50.230;18.944;2022-11-14T04:23:09;99402.50;;;5.35;88.20
63535;BME280;55128;50.230;18.944;2022-11-14T04:28:10;99406.16;;;5.22;88.52
63535;BME280;55128;50.230;18.944;2022-11-14T04:33:11;99403.47;;;5.26;88.45
63535;BME280;55128;50.230;18.944;2022-11-14T04:38:11;99407.66;;;5.43;87.89
63535;BME280;55128;50.230;18.944;2022-11-14T04:43:12;99405.06;;;5.38;88.08
63535;BME280;55128;50.230;18.944;2022-11-14T04:48:13;99402.72;;;5.15;88.34
63535;BME280;55128;50.230;18.944;2022-11-14T04:53:13;99404.59;;;5.02;88.84
63535;BME280;55128;50.230;18.944;2022-11-14T04:58:14;99406.38;;;5.02;89.14
63535;BME280;55128;50.230;18.944;2022-11-14T05:03:14;99403.75;;;5.02;88.44
63535;BME280;55128;50.230;18.944;2022-11-14T05:08:15;99399.41;;;4.96;89.21
63535;BME280;55128;50.230;18.944;2022-11-14T05:13:16;99400.91;;;5.22;89.16
63535;BME280;55128;50.230;18.944;2022-11-14T05:18:16;99394.81;;;5.15;88.58
63535;BME280;55128;50.230;18.944;2022-11-14T05:23:21;99393.88;;;5.22;88.74
63535;BME280;55128;50.230;18.944;2022-11-14T05:28:22;99392.25;;;5.11;88.74
63535;BME280;55128;50.230;18.944;2022-11-14T05:33:23;99396.78;;;4.99;89.11
63535;BME280;55128;50.230;18.944;2022-11-14T05:38:23;99399.50;;;4.87;89.38
63535;BME280;55128;50.230;18.944;2022-11-14T05:43:27;99385.53;;;4.82;89.37
63535;BME280;55128;50.230;18.944;2022-11-14T05:48:28;99395.34;;;4.67;90.10
63535;BME280;55128;50.230;18.944;2022-11-14T05:53:30;99390.13;;;4.61;90.36
63535;BME280;55128;50.230;18.944;2022-11-14T05:58:33;99397.03;;;4.73;90.84
63535;BME280;55128;50.230;18.944;2022-11-14T06:03:36;99390.69;;;4.91;90.94
63535;BME280;55128;50.230;18.944;2022-11-14T06:08:38;99390.56;;;5.05;89.55
63535;BME280;55128;50.230;18.944;2022-11-14T06:13:39;99398.47;;;5.03;89.82
63535;BME280;55128;50.230;18.944;2022-11-14T06:18:40;99395.75;;;5.13;89.54
63535;BME280;55128;50.230;18.944;2022-11-14T06:23:41;99396.72;;;5.04;89.35
63535;BME280;55128;50.230;18.944;2022-11-14T06:28:41;99402.81;;;5.07;89.19
63535;BME280;55128;50.230;18.944;2022-11-14T06:33:42;99408.84;;;5.16;89.13
63535;BME280;55128;50.230;18.944;2022-11-14T06:38:43;99412.41;;;5.12;89.15
63535;BME280;55128;50.230;18.944;2022-11-14T06:43:48;99424.53;;;5.26;88.91
63535;BME280;55128;50.230;18.944;2022-11-14T06:48:49;99422.75;;;5.27;88.99
63535;BME280;55128;50.230;18.944;2022-11-14T06:53:51;99411.34;;;5.28;88.38
63535;BME280;55128;50.230;18.944;2022-11-14T06:58:52;99417.34;;;5.39;89.08
63535;BME280;55128;50.230;18.944;2022-11-14T07:03:53;99407.78;;;5.31;88.44
63535;BME280;55128;50.230;18.944;2022-11-14T07:08:54;99399.09;;;5.25;89.07
63535;BME280;55128;50.230;18.944;2022-11-14T07:14:00;99406.84;;;5.38;89.14
63535;BME280;55128;50.230;18.944;2022-11-14T07:19:06;99409.47;;;5.39;89.13
63535;BME280;55128;50.230;18.944;2022-11-14T07:24:09;99409.34;;;5.49;88.94
63535;BME280;55128;50.230;18.944;2022-11-14T07:29:09;99409.47;;;5.38;88.97
63535;BME280;55128;50.230;18.944;2022-11-14T07:34:10;99418.13;;;5.48;88.55
63535;BME280;55128;50.230;18.944;2022-11-14T07:39:10;99407.34;;;5.66;87.59
63535;BME280;55128;50.230;18.944;2022-11-14T07:44:11;99383.31;;;5.89;87.11
63535;BME280;55128;50.230;18.944;2022-11-14T07:49:11;99382.44;;;5.90;87.37
63535;BME280;55128;50.230;18.944;2022-11-14T07:54:12;99379.56;;;6.09;85.86
63535;BME280;55128;50.230;18.944;2022-11-14T07:59:13;99379.63;;;6.04;85.71
63535;BME280;55128;50.230;18.944;2022-11-14T08:04:13;99376.91;;;6.10;86.36
63535;BME280;55128;50.230;18.944;2022-11-14T08:09:14;99374.28;;;6.10;86.43
63535;BME280;55128;50.230;18.944;2022-11-14T08:14:15;99363.03;;;5.99;87.10
63535;BME280;55128;50.230;18.944;2022-11-14T08:19:15;99368.47;;;6.42;86.23
63535;BME280;55128;50.230;18.944;2022-11-14T08:24:16;99369.03;;;6.60;85.34
63535;BME280;55128;50.230;18.944;2022-11-14T08:29:17;99361.81;;;6.70;84.30
63535;BME280;55128;50.230;18.944;2022-11-14T08:34:17;99362.94;;;6.56;85.60
63535;BME280;55128;50.230;18.944;2022-11-14T08:39:18;99365.69;;;6.98;84.00
63535;BME280;55128;50.230;18.944;2022-11-14T08:44:19;99346.56;;;6.86;83.57
63535;BME280;55128;50.230;18.944;2022-11-14T08:49:19;99334.41;;;6.77;83.39
63535;BME280;55128;50.230;18.944;2022-11-14T08:54:20;99330.94;;;6.75;83.53
63535;BME280;55128;50.230;18.944;2022-11-14T08:59:20;99338.81;;;6.78;83.90
63535;BME280;55128;50.230;18.944;2022-11-14T09:04:21;99352.59;;;6.92;83.30
63535;BME280;55128;50.230;18.944;2022-11-14T09:09:21;99343.34;;;7.15;82.18
63535;BME280;55128;50.230;18.944;2022-11-14T09:14:22;99346.25;;;7.45;82.19
63535;BME280;55128;50.230;18.944;2022-11-14T09:19:23;99338.59;;;7.71;81.10
63535;BME280;55128;50.230;18.944;2022-11-14T09:24:23;99343.97;;;7.68;81.21
63535;BME280;55128;50.230;18.944;2022-11-14T09:29:24;99328.75;;;7.79;79.99
63535;BME280;55128;50.230;18.944;2022-11-14T09:34:24;99322.53;;;7.81;80.16
63535;BME280;55128;50.230;18.944;2022-11-14T09:39:25;99319.97;;;7.77;79.91
63535;BME280;55128;50.230;18.944;2022-11-14T09:44:59;99305.22;;;8.05;78.63
63535;BME280;55128;50.230;18.944;2022-11-14T09:50:12;99311.47;;;8.02;79.31
63535;BME280;55128;50.230;18.944;2022-11-14T09:55:26;99306.03;;;8.43;78.68
63535;BME280;55128;50.230;18.944;2022-11-14T10:00:53;99295.47;;;8.75;77.19
63535;BME280;55128;50.230;18.944;2022-11-14T10:06:15;99287.34;;;8.82;75.12
63535;BME280;55128;50.230;18.944;2022-11-14T10:37:44;99261.22;;;9.01;74.76
63535;BME280;55128;50.230;18.944;2022-11-14T10:43:12;99245.50;;;8.94;76.32
63535;BME280;55128;50.230;18.944;2022-11-14T10:48:29;99231.06;;;9.34;74.38
63535;BME280;55128;50.230;18.944;2022-11-14T10:53:37;99216.56;;;9.18;74.52
63535;BME280;55128;50.230;18.944;2022-11-14T10:58:41;99211.28;;;10.00;72.42
63535;BME280;55128;50.230;18.944;2022-11-14T11:03:43;99201.97;;;9.61;72.18
63535;BME280;55128;50.230;18.944;2022-11-14T11:08:45;99201.81;;;8.80;75.30
63535;BME280;55128;50.230;18.944;2022-11-14T11:14:16;99211.81;;;9.00;74.87
63535;BME280;55128;50.230;18.944;2022-11-14T11:19:25;99199.66;;;9.22;74.30
63535;BME280;55128;50.230;18.944;2022-11-14T11:24:37;99197.47;;;9.37;74.19
63535;BME280;55128;50.230;18.944;2022-11-14T11:29:38;99180.34;;;9.19;73.94
63535;BME280;55128;50.230;18.944;2022-11-14T11:34:39;99180.91;;;9.28;73.77
63535;BME280;55128;50.230;18.944;2022-11-14T11:39:44;99174.53;;;9.62;72.88
63535;BME280;55128;50.230;18.944;2022-11-14T11:44:49;99177.59;;;9.77;73.03
63535;BME280;55128;50.230;18.944;2022-11-14T11:49:53;99168.81;;;9.75;72.50
63535;BME280;55128;50.230;18.944;2022-11-14T12:00:14;99164.38;;;9.22;72.92
63535;BME280;55128;50.230;18.944;2022-11-14T12:10:30;99151.94;;;8.66;74.80
63535;BME280;55128;50.230;18.944;2022-11-14T12:27:14;99131.13;;;9.11;74.83
63535;BME280;55128;50.230;18.944;2022-11-14T12:32:30;99132.31;;;9.29;74.55
63535;BME280;55128;50.230;18.944;2022-11-14T12:37:34;99130.31;;;9.36;74.78
63535;BME280;55128;50.230;18.944;2022-11-14T12:42:36;99126.97;;;9.31;74.21
63535;BME280;55128;50.230;18.944;2022-11-14T12:48:20;99119.16;;;9.26;74.69
63535;BME280;55128;50.230;18.944;2022-11-14T13:09:24;99111.84;;;9.06;76.39
63535;BME280;55128;50.230;18.944;2022-11-14T13:14:31;99105.66;;;9.07;76.01
63535;BME280;55128;50.230;18.944;2022-11-14T13:20:24;99102.31;;;9.01;76.20
63535;BME280;55128;50.230;18.944;2022-11-14T13:25:44;99095.41;;;8.97;76.39
63535;BME280;55128;50.230;18.944;2022-11-14T13:31:04;99083.91;;;8.98;76.42
63535;BME280;55128;50.230;18.944;2022-11-14T13:36:07;99084.56;;;8.76;76.89
63535;BME280;55128;50.230;18.944;2022-11-14T13:51:51;99073.56;;;8.62;77.92
63535;BME280;55128;50.230;18.944;2022-11-14T14:28:47;99052.53;;;7.96;81.12
63535;BME280;55128;50.230;18.944;2022-11-14T14:33:52;99046.94;;;7.75;82.48
63535;BME280;55128;50.230;18.944;2022-11-14T14:39:14;99035.06;;;7.90;81.84
63535;BME280;55128;50.230;18.944;2022-11-14T14:44:29;99043.94;;;7.88;81.55
63535;BME280;55128;50.230;18.944;2022-11-14T14:49:37;99035.84;;;7.63;82.92
63535;BME280;55128;50.230;18.944;2022-11-14T14:54:38;99033.88;;;7.36;83.98
63535;BME280;55128;50.230;18.944;2022-11-14T14:59:38;99028.22;;;7.50;83.61
63535;BME280;55128;50.230;18.944;2022-11-14T15:04:41;99036.13;;;7.52;83.03
63535;BME280;55128;50.230;18.944;2022-11-14T15:09:59;99032.69;;;7.48;82.52
63535;BME280;55128;50.230;18.944;2022-11-14T15:15:00;99024.94;;;7.42;82.59
63535;BME280;55128;50.230;18.944;2022-11-14T15:20:02;99021.72;;;7.31;83.28
63535;BME280;55128;50.230;18.944;2022-11-14T15:30:32;99031.00;;;7.11;83.38
63535;BME280;55128;50.230;18.944;2022-11-14T15:35:39;99030.31;;;7.05;83.54
63535;BME280;55128;50.230;18.944;2022-11-14T15:40:40;99019.72;;;7.06;83.73
63535;BME280;55128;50.230;18.944;2022-11-14T15:45:40;99015.88;;;6.84;83.98
63535;BME280;55128;50.230;18.944;2022-11-14T15:50:41;99023.97;;;6.76;84.06
63535;BME280;55128;50.230;18.944;2022-11-14T15:55:42;99022.28;;;6.72;83.97
63535;BME280;55128;50.230;18.944;2022-11-14T16:00:52;99022.06;;;6.81;83.83
63535;BME280;55128;50.230;18.944;2022-11-14T16:05:53;99008.06;;;6.79;83.83
63535;BME280;55128;50.230;18.944;2022-11-14T16:10:54;99008.81;;;6.84;83.50
63535;BME280;55128;50.230;18.944;2022-11-14T16:15:54;99015.88;;;6.84;82.99
63535;BME280;55128;50.230;18.944;2022-11-14T16:20:55;99014.84;;;6.89;82.75
63535;BME280;55128;50.230;18.944;2022-11-14T16:25:58;99003.22;;;6.60;83.21
63535;BME280;55128;50.230;18.944;2022-11-14T16:30:59;99003.31;;;6.57;83.49
63535;BME280;55128;50.230;18.944;2022-11-14T16:35:59;99011.69;;;6.36;84.00
63535;BME280;55128;50.230;18.944;2022-11-14T16:41:00;99016.88;;;6.40;84.10
63535;BME280;55128;50.230;18.944;2022-11-14T16:46:04;99009.09;;;6.34;85.12
63535;BME280;55128;50.230;18.944;2022-11-14T16:51:05;99014.31;;;6.37;84.33
63535;BME280;55128;50.230;18.944;2022-11-14T16:56:10;99006.53;;;6.31;84.78
63535;BME280;55128;50.230;18.944;2022-11-14T17:01:13;99012.03;;;6.22;84.51
63535;BME280;55128;50.230;18.944;2022-11-14T17:06:15;99003.06;;;6.29;83.84
63535;BME280;55128;50.230;18.944;2022-11-14T17:11:15;99003.81;;;5.95;84.72
63535;BME280;55128;50.230;18.944;2022-11-14T17:16:16;99007.63;;;6.21;84.16
63535;BME280;55128;50.230;18.944;2022-11-14T17:21:17;98993.25;;;5.97;84.48
63535;BME280;55128;50.230;18.944;2022-11-14T17:26:18;98989.69;;;5.98;84.27
63535;BME280;55128;50.230;18.944;2022-11-14T17:31:19;98971.59;;;5.79;85.66
63535;BME280;55128;50.230;18.944;2022-11-14T17:36:22;98979.25;;;5.92;85.62
63535;BME280;55128;50.230;18.944;2022-11-14T17:41:23;98978.94;;;5.65;86.35
63535;BME280;55128;50.230;18.944;2022-11-14T17:46:24;98986.63;;;5.74;86.49
63535;BME280;55128;50.230;18.944;2022-11-14T17:51:25;98982.91;;;5.86;85.99
63535;BME280;55128;50.230;18.944;2022-11-14T17:56:28;98981.81;;;5.95;86.25
63535;BME280;55128;50.230;18.944;2022-11-14T18:01:29;98981.09;;;5.88;86.34
63535;BME280;55128;50.230;18.944;2022-11-14T18:06:32;98984.53;;;5.92;86.55
63535;BME280;55128;50.230;18.944;2022-11-14T18:11:33;98966.13;;;5.90;86.22
63535;BME280;55128;50.230;18.944;2022-11-14T18:16:34;98968.72;;;5.92;86.12
63535;BME280;55128;50.230;18.944;2022-11-14T18:21:35;98955.66;;;5.85;86.07
63535;BME280;55128;50.230;18.944;2022-11-14T18:26:37;98950.63;;;5.76;86.18
63535;BME280;55128;50.230;18.944;2022-11-14T18:31:38;98953.91;;;5.86;86.46
63535;BME280;55128;50.230;18.944;2022-11-14T18:36:39;98951.63;;;5.71;87.30
63535;BME280;55128;50.230;18.944;2022-11-14T18:41:39;98940.56;;;5.95;86.18
63535;BME280;55128;50.230;18.944;2022-11-14T18:46:40;98941.75;;;5.80;86.86
63535;BME280;55128;50.230;18.944;2022-11-14T18:51:40;98929.47;;;5.79;87.19
63535;BME280;55128;50.230;18.944;2022-11-14T18:56:41;98933.06;;;5.75;87.25
63535;BME280;55128;50.230;18.944;2022-11-14T19:01:42;98925.84;;;5.83;87.42
63535;BME280;55128;50.230;18.944;2022-11-14T19:06:43;98938.53;;;6.08;85.53
63535;BME280;55128;50.230;18.944;2022-11-14T19:11:43;98934.47;;;5.92;86.88
63535;BME280;55128;50.230;18.944;2022-11-14T19:17:03;98936.19;;;5.93;86.10
63535;BME280;55128;50.230;18.944;2022-11-14T19:22:06;98928.63;;;5.77;87.07
63535;BME280;55128;50.230;18.944;2022-11-14T19:27:06;98927.75;;;5.78;87.36
63535;BME280;55128;50.230;18.944;2022-11-14T19:32:07;98913.59;;;5.82;86.45
63535;BME280;55128;50.230;18.944;2022-11-14T19:37:08;98918.03;;;5.80;87.04
63535;BME280;55128;50.230;18.944;2022-11-14T19:42:08;98905.59;;;5.85;87.09
63535;BME280;55128;50.230;18.944;2022-11-14T19:47:09;98906.34;;;5.92;87.13
63535;BME280;55128;50.230;18.944;2022-11-14T19:52:09;98903.91;;;5.83;87.81
63535;BME280;55128;50.230;18.944;2022-11-14T19:57:10;98896.78;;;5.88;87.10
63535;BME280;55128;50.230;18.944;2022-11-14T20:02:12;98900.75;;;6.08;86.96
63535;BME280;55128;50.230;18.944;2022-11-14T20:07:12;98902.75;;;5.98;87.16
63535;BME280;55128;50.230;18.944;2022-11-14T20:12:13;98901.03;;;5.94;87.26
63535;BME280;55128;50.230;18.944;2022-11-14T20:17:14;98887.59;;;6.06;87.24
63535;BME280;55128;50.230;18.944;2022-11-14T20:22:15;98892.09;;;6.02;87.06
63535;BME280;55128;50.230;18.944;2022-11-14T20:27:15;98876.53;;;5.90;88.25
63535;BME280;55128;50.230;18.944;2022-11-14T20:32:16;98884.03;;;6.10;87.04
63535;BME280;55128;50.230;18.944;2022-11-14T20:37:16;98874.09;;;6.21;86.49
63535;BME280;55128;50.230;18.944;2022-11-14T20:42:17;98874.56;;;6.01;87.09
63535;BME280;55128;50.230;18.944;2022-11-14T20:47:18;98870.16;;;6.00;87.28
63535;BME280;55128;50.230;18.944;2022-11-14T20:52:18;98866.66;;;6.01;86.65
63535;BME280;55128;50.230;18.944;2022-11-14T20:57:19;98869.25;;;6.03;86.94
63535;BME280;55128;50.230;18.944;2022-11-14T21:02:19;98866.78;;;5.94;86.72
63535;BME280;55128;50.230;18.944;2022-11-14T21:07:20;98868.03;;;5.77;87.27
63535;BME280;55128;50.230;18.944;2022-11-14T21:12:20;98857.44;;;5.80;87.39
63535;BME280;55128;50.230;18.944;2022-11-14T21:17:21;98853.84;;;5.84;87.04
63535;BME280;55128;50.230;18.944;2022-11-14T21:22:23;98844.09;;;5.88;86.96
63535;BME280;55128;50.230;18.944;2022-11-14T21:27:23;98850.44;;;5.79;86.98
63535;BME280;55128;50.230;18.944;2022-11-14T21:32:24;98844.88;;;5.92;86.61
63535;BME280;55128;50.230;18.944;2022-11-14T21:37:24;98846.50;;;5.99;86.60
63535;BME280;55128;50.230;18.944;2022-11-14T21:42:25;98844.88;;;5.92;86.34
63535;BME280;55128;50.230;18.944;2022-11-14T21:47:27;98843.09;;;5.92;86.64
63535;BME280;55128;50.230;18.944;2022-11-14T21:52:28;98838.91;;;5.83;86.84
63535;BME280;55128;50.230;18.944;2022-11-14T21:57:28;98834.41;;;5.89;86.31
63535;BME280;55128;50.230;18.944;2022-11-14T22:02:29;98838.22;;;5.75;87.27
63535;BME280;55128;50.230;18.944;2022-11-14T22:07:48;98840.13;;;5.69;87.07
63535;BME280;55128;50.230;18.944;2022-11-14T22:12:49;98841.88;;;5.70;88.01
63535;BME280;55128;50.230;18.944;2022-11-14T22:17:49;98843.25;;;5.86;86.83
63535;BME280;55128;50.230;18.944;2022-11-14T22:22:53;98845.75;;;5.92;86.55
63535;BME280;55128;50.230;18.944;2022-11-14T22:27:53;98851.88;;;5.93;86.51
63535;BME280;55128;50.230;18.944;2022-11-14T22:32:54;98849.41;;;5.85;86.97
63535;BME280;55128;50.230;18.944;2022-11-14T22:37:55;98838.63;;;5.97;86.42
63535;BME280;55128;50.230;18.944;2022-11-14T22:42:58;98849.75;;;6.10;86.26
63535;BME280;55128;50.230;18.944;2022-11-14T22:48:00;98844.09;;;6.26;85.98
63535;BME280;55128;50.230;18.944;2022-11-14T22:53:01;98844.56;;;6.41;85.28
63535;BME280;55128;50.230;18.944;2022-11-14T22:58:01;98836.59;;;6.45;84.82
63535;BME280;55128;50.230;18.944;2022-11-14T23:03:08;98831.81;;;6.25;84.83
63535;BME280;55128;50.230;18.944;2022-11-14T23:08:19;98833.66;;;6.21;85.06
63535;BME280;55128;50.230;18.944;2022-11-14T23:13:19;98836.41;;;6.16;85.89
63535;BME280;55128;50.230;18.944;2022-11-14T23:18:22;98824.72;;;6.27;84.44
63535;BME280;55128;50.230;18.944;2022-11-14T23:23:22;98818.19;;;6.07;84.89
63535;BME280;55128;50.230;18.944;2022-11-14T23:28:24;98820.97;;;6.02;85.53
63535;BME280;55128;50.230;18.944;2022-11-14T23:33:25;98810.59;;;5.93;85.23
63535;BME280;55128;50.230;18.944;2022-11-14T23:38:26;98814.53;;;5.75;86.13
63535;BME280;55128;50.230;18.944;2022-11-14T23:43:30;98806.44;;;5.83;85.83
63535;BME280;55128;50.230;18.944;2022-11-14T23:48:30;98809.44;;;5.68;85.76
63535;BME280;55128;50.230;18.944;2022-11-14T23:53:31;98817.59;;;5.57;86.32
63535;BME280;55128;50.230;18.944;2022-11-14T23:58:31;98808.22;;;5.43;87.06
